sensor_id;sensor_type;location;lat;lon;timestamp;temperature;humidity
76785;SHT30;66893;44.316;0.092;2023-08-08T00:00:47;25.00;43.81
76785;SHT30;66893;44.316;0.092;2023-08-08T00:03:13;24.97;43.81
76785;SHT30;66893;44.316;0.092;2023-08-08T00:05:38;24.94;43.87
76785;SHT30;66893;44.316;0.092;2023-08-08T00:08:04;24.91;43.81
76785;SHT30;66893;44.316;0.092;2023-08-08T00:10:30;24.88;43.81
76785;SHT30;66893;44.316;0.092;2023-08-08T00:12:55;24.90;43.85
76785;SHT30;66893;44.316;0.092;2023-08-08T00:15:21;24.84;43.87
76785;SHT30;66893;44.316;0.092;2023-08-08T00:17:46;24.84;43.96
76785;SHT30;66893;44.316;0.092;2023-08-08T00:20:12;24.80;43.80
76785;SHT30;66893;44.316;0.092;2023-08-08T00:22:37;24.80;43.91
76785;SHT30;66893;44.316;0.092;2023-08-08T00:25:03;24.76;43.88
76785;SHT30;66893;44.316;0.092;2023-08-08T00:27:29;24.76;43.83
76785;SHT30;66893;44.316;0.092;2023-08-08T00:29:54;24.72;43.93
76785;SHT30;66893;44.316;0.092;2023-08-08T00:32:20;24.70;43.88
76785;SHT30;66893;44.316;0.092;2023-08-08T00:34:45;24.69;43.93
76785;SHT30;66893;44.316;0.092;2023-08-08T00:37:11;24.67;43.93
76785;SHT30;66893;44.316;0.092;2023-08-08T00:39:36;24.64;43.89
76785;SHT30;66893;44.316;0.092;2023-08-08T00:42:02;24.63;43.92
76785;SHT30;66893;44.316;0.092;2023-08-08T00:44:28;24.57;43.87
76785;SHT30;66893;44.316;0.092;2023-08-08T00:46:54;24.59;43.97
76785;SHT30;66893;44.316;0.092;2023-08-08T00:49:20;24.55;43.92
76785;SHT30;66893;44.316;0.092;2023-08-08T00:51:46;24.53;43.87
76785;SHT30;66893;44.316;0.092;2023-08-08T00:54:13;24.51;43.95
76785;SHT30;66893;44.316;0.092;2023-08-08T00:56:39;24.49;44.02
76785;SHT30;66893;44.316;0.092;2023-08-08T00:59:05;24.46;44.00
76785;SHT30;66893;44.316;0.092;2023-08-08T01:01:31;24.45;44.03
76785;SHT30;66893;44.316;0.092;2023-08-08T01:03:56;24.45;44.02
76785;SHT30;66893;44.316;0.092;2023-08-08T01:06:34;24.40;44.04
76785;SHT30;66893;44.316;0.092;2023-08-08T01:09:13;24.35;44.00
76785;SHT30;66893;44.316;0.092;2023-08-08T01:11:40;24.36;44.03
76785;SHT30;66893;44.316;0.092;2023-08-08T01:14:07;24.35;43.98
76785;SHT30;66893;44.316;0.092;2023-08-08T01:16:34;24.29;43.98
76785;SHT30;66893;44.316;0.092;2023-08-08T01:19:00;24.26;44.03
76785;SHT30;66893;44.316;0.092;2023-08-08T01:21:27;24.26;44.05
76785;SHT30;66893;44.316;0.092;2023-08-08T01:24:01;24.24;44.03
76785;SHT30;66893;44.316;0.092;2023-08-08T01:26:31;24.22;44.02
76785;SHT30;66893;44.316;0.092;2023-08-08T01:28:57;24.18;44.00
76785;SHT30;66893;44.316;0.092;2023-08-08T01:31:22;24.18;44.04
76785;SHT30;66893;44.316;0.092;2023-08-08T01:33:48;24.15;44.12
76785;SHT30;66893;44.316;0.092;2023-08-08T01:36:39;24.12;44.11
76785;SHT30;66893;44.316;0.092;2023-08-08T01:39:09;24.11;44.15
76785;SHT30;66893;44.316;0.092;2023-08-08T01:41:39;24.08;44.17
76785;SHT30;66893;44.316;0.092;2023-08-08T01:44:06;24.05;44.22
76785;SHT30;66893;44.316;0.092;2023-08-08T01:46:33;24.04;44.21
76785;SHT30;66893;44.316;0.092;2023-08-08T01:48:59;24.00;44.20
76785;SHT30;66893;44.316;0.092;2023-08-08T01:51:25;23.97;44.24
76785;SHT30;66893;44.316;0.092;2023-08-08T01:53:52;23.96;44.29
76785;SHT30;66893;44.316;0.092;2023-08-08T01:56:17;23.96;44.25
76785;SHT30;66893;44.316;0.092;2023-08-08T01:58:42;23.93;44.26
76785;SHT30;66893;44.316;0.092;2023-08-08T02:01:08;23.90;44.27
76785;SHT30;66893;44.316;0.092;2023-08-08T02:03:33;23.87;44.28
76785;SHT30;66893;44.316;0.092;2023-08-08T02:05:59;23.85;44.29
76785;SHT30;66893;44.316;0.092;2023-08-08T02:08:24;23.84;44.32
76785;SHT30;66893;44.316;0.092;2023-08-08T02:10:50;23.80;44.35
76785;SHT30;66893;44.316;0.092;2023-08-08T02:13:15;23.80;44.34
76785;SHT30;66893;44.316;0.092;2023-08-08T02:15:41;23.75;44.34
76785;SHT30;66893;44.316;0.092;2023-08-08T02:18:06;23.75;44.41
76785;SHT30;66893;44.316;0.092;2023-08-08T02:20:34;23.73;44.34
76785;SHT30;66893;44.316;0.092;2023-08-08T02:22:59;23.73;44.34
76785;SHT30;66893;44.316;0.092;2023-08-08T02:25:25;23.66;44.48
76785;SHT30;66893;44.316;0.092;2023-08-08T02:27:50;23.64;44.33
76785;SHT30;66893;44.316;0.092;2023-08-08T02:30:16;23.62;44.38
76785;SHT30;66893;44.316;0.092;2023-08-08T02:32:41;23.62;44.36
76785;SHT30;66893;44.316;0.092;2023-08-08T02:35:07;23.57;44.32
76785;SHT30;66893;44.316;0.092;2023-08-08T02:37:33;23.54;44.33
76785;SHT30;66893;44.316;0.092;2023-08-08T02:39:58;23.54;44.34
76785;SHT30;66893;44.316;0.092;2023-08-08T02:42:24;23.54;44.36
76785;SHT30;66893;44.316;0.092;2023-08-08T02:44:49;23.50;44.39
76785;SHT30;66893;44.316;0.092;2023-08-08T02:47:15;23.46;44.35
76785;SHT30;66893;44.316;0.092;2023-08-08T02:49:40;23.45;44.37
76785;SHT30;66893;44.316;0.092;2023-08-08T02:52:06;23.43;44.39
76785;SHT30;66893;44.316;0.092;2023-08-08T02:54:31;23.41;44.38
76785;SHT30;66893;44.316;0.092;2023-08-08T02:56:57;23.38;44.41
76785;SHT30;66893;44.316;0.092;2023-08-08T02:59:22;23.35;44.43
76785;SHT30;66893;44.316;0.092;2023-08-08T03:01:48;23.32;44.44
76785;SHT30;66893;44.316;0.092;2023-08-08T03:04:14;23.30;44.42
76785;SHT30;66893;44.316;0.092;2023-08-08T03:06:40;23.26;44.45
76785;SHT30;66893;44.316;0.092;2023-08-08T03:09:05;23.23;44.40
76785;SHT30;66893;44.316;0.092;2023-08-08T03:11:31;23.22;44.49
76785;SHT30;66893;44.316;0.092;2023-08-08T03:13:56;23.19;44.46
76785;SHT30;66893;44.316;0.092;2023-08-08T03:16:21;23.16;44.47
76785;SHT30;66893;44.316;0.092;2023-08-08T03:18:47;23.15;44.49
76785;SHT30;66893;44.316;0.092;2023-08-08T03:21:12;23.12;44.49
76785;SHT30;66893;44.316;0.092;2023-08-08T03:23:38;23.09;44.46
76785;SHT30;66893;44.316;0.092;2023-08-08T03:26:03;23.07;44.50
76785;SHT30;66893;44.316;0.092;2023-08-08T03:28:29;23.04;44.55
76785;SHT30;66893;44.316;0.092;2023-08-08T03:30:54;23.02;44.52
76785;SHT30;66893;44.316;0.092;2023-08-08T03:33:20;22.99;44.53
76785;SHT30;66893;44.316;0.092;2023-08-08T03:35:45;22.98;44.53
76785;SHT30;66893;44.316;0.092;2023-08-08T03:38:11;22.97;44.55
76785;SHT30;66893;44.316;0.092;2023-08-08T03:40:36;22.94;44.55
76785;SHT30;66893;44.316;0.092;2023-08-08T03:43:02;22.94;44.52
76785;SHT30;66893;44.316;0.092;2023-08-08T03:45:28;22.90;44.53
76785;SHT30;66893;44.316;0.092;2023-08-08T03:47:53;22.88;44.52
76785;SHT30;66893;44.316;0.092;2023-08-08T03:50:19;22.84;44.50
76785;SHT30;66893;44.316;0.092;2023-08-08T03:52:44;22.86;44.53
76785;SHT30;66893;44.316;0.092;2023-08-08T03:55:10;22.83;44.55
76785;SHT30;66893;44.316;0.092;2023-08-08T03:57:35;22.77;44.53
76785;SHT30;66893;44.316;0.092;2023-08-08T04:00:00;22.81;44.57
76785;SHT30;66893;44.316;0.092;2023-08-08T04:02:26;22.77;44.56
76785;SHT30;66893;44.316;0.092;2023-08-08T04:04:53;22.72;44.60
76785;SHT30;66893;44.316;0.092;2023-08-08T04:07:18;22.74;44.60
76785;SHT30;66893;44.316;0.092;2023-08-08T04:09:44;22.71;44.61
76785;SHT30;66893;44.316;0.092;2023-08-08T04:12:09;22.65;44.59
76785;SHT30;66893;44.316;0.092;2023-08-08T04:14:35;22.65;44.56
76785;SHT30;66893;44.316;0.092;2023-08-08T04:17:00;22.64;44.62
76785;SHT30;66893;44.316;0.092;2023-08-08T04:19:26;22.59;44.66
76785;SHT30;66893;44.316;0.092;2023-08-08T04:21:51;22.57;44.61
76785;SHT30;66893;44.316;0.092;2023-08-08T04:24:16;22.54;44.62
76785;SHT30;66893;44.316;0.092;2023-08-08T04:26:42;22.52;44.63
76785;SHT30;66893;44.316;0.092;2023-08-08T04:29:07;22.49;44.59
76785;SHT30;66893;44.316;0.092;2023-08-08T04:31:33;22.50;44.58
76785;SHT30;66893;44.316;0.092;2023-08-08T04:33:59;22.46;44.64
76785;SHT30;66893;44.316;0.092;2023-08-08T04:36:27;22.44;44.64
76785;SHT30;66893;44.316;0.092;2023-08-08T04:38:52;22.42;44.65
76785;SHT30;66893;44.316;0.092;2023-08-08T04:41:17;22.40;44.62
76785;SHT30;66893;44.316;0.092;2023-08-08T04:43:43;22.37;44.66
76785;SHT30;66893;44.316;0.092;2023-08-08T04:46:08;22.39;44.69
76785;SHT30;66893;44.316;0.092;2023-08-08T04:48:35;22.36;44.69
76785;SHT30;66893;44.316;0.092;2023-08-08T04:51:04;22.30;44.65
76785;SHT30;66893;44.316;0.092;2023-08-08T04:53:29;22.28;44.66
76785;SHT30;66893;44.316;0.092;2023-08-08T04:55:54;22.25;44.70
76785;SHT30;66893;44.316;0.092;2023-08-08T04:58:20;22.23;44.66
76785;SHT30;66893;44.316;0.092;2023-08-08T05:00:45;22.22;44.68
76785;SHT30;66893;44.316;0.092;2023-08-08T05:03:11;22.19;44.68
76785;SHT30;66893;44.316;0.092;2023-08-08T05:05:37;22.19;44.67
76785;SHT30;66893;44.316;0.092;2023-08-08T05:08:02;22.16;44.68
76785;SHT30;66893;44.316;0.092;2023-08-08T05:10:28;22.15;44.67
76785;SHT30;66893;44.316;0.092;2023-08-08T05:12:53;22.13;44.67
76785;SHT30;66893;44.316;0.092;2023-08-08T05:15:19;22.13;44.67
76785;SHT30;66893;44.316;0.092;2023-08-08T05:17:44;22.09;44.67
76785;SHT30;66893;44.316;0.092;2023-08-08T05:20:10;22.09;44.70
76785;SHT30;66893;44.316;0.092;2023-08-08T05:22:36;22.06;44.67
76785;SHT30;66893;44.316;0.092;2023-08-08T05:25:01;22.05;44.72
76785;SHT30;66893;44.316;0.092;2023-08-08T05:27:27;22.02;44.68
76785;SHT30;66893;44.316;0.092;2023-08-08T05:29:52;22.04;44.68
76785;SHT30;66893;44.316;0.092;2023-08-08T05:32:17;22.01;44.67
76785;SHT30;66893;44.316;0.092;2023-08-08T05:34:43;21.98;44.68
76785;SHT30;66893;44.316;0.092;2023-08-08T05:37:08;21.99;44.74
76785;SHT30;66893;44.316;0.092;2023-08-08T05:39:34;21.98;44.73
76785;SHT30;66893;44.316;0.092;2023-08-08T05:41:59;21.97;44.75
76785;SHT30;66893;44.316;0.092;2023-08-08T05:44:25;21.97;44.74
76785;SHT30;66893;44.316;0.092;2023-08-08T05:46:50;21.98;44.76
76785;SHT30;66893;44.316;0.092;2023-08-08T05:49:15;21.97;44.73
76785;SHT30;66893;44.316;0.092;2023-08-08T05:51:41;22.01;44.73
76785;SHT30;66893;44.316;0.092;2023-08-08T05:54:06;22.02;44.69
76785;SHT30;66893;44.316;0.092;2023-08-08T05:56:36;21.98;44.72
76785;SHT30;66893;44.316;0.092;2023-08-08T05:59:02;22.01;44.68
76785;SHT30;66893;44.316;0.092;2023-08-08T06:01:28;21.99;44.73
76785;SHT30;66893;44.316;0.092;2023-08-08T06:03:53;21.98;44.73
76785;SHT30;66893;44.316;0.092;2023-08-08T06:06:19;21.98;44.80
76785;SHT30;66893;44.316;0.092;2023-08-08T06:08:44;21.98;44.81
76785;SHT30;66893;44.316;0.092;2023-08-08T06:11:10;21.98;44.83
76785;SHT30;66893;44.316;0.092;2023-08-08T06:13:36;21.99;44.86
76785;SHT30;66893;44.316;0.092;2023-08-08T06:16:02;21.98;44.92
76785;SHT30;66893;44.316;0.092;2023-08-08T06:18:35;22.01;44.86
76785;SHT30;66893;44.316;0.092;2023-08-08T06:21:00;22.02;44.93
76785;SHT30;66893;44.316;0.092;2023-08-08T06:23:26;22.02;44.97
76785;SHT30;66893;44.316;0.092;2023-08-08T06:25:51;22.04;44.84
76785;SHT30;66893;44.316;0.092;2023-08-08T06:28:17;21.80;44.88
76785;SHT30;66893;44.316;0.092;2023-08-08T06:30:42;21.51;45.14
76785;SHT30;66893;44.316;0.092;2023-08-08T06:33:08;21.26;45.41
76785;SHT30;66893;44.316;0.092;2023-08-08T06:35:33;20.96;45.76
76785;SHT30;66893;44.316;0.092;2023-08-08T06:37:59;20.77;45.98
76785;SHT30;66893;44.316;0.092;2023-08-08T06:40:25;20.57;46.25
76785;SHT30;66893;44.316;0.092;2023-08-08T06:42:50;20.36;46.49
76785;SHT30;66893;44.316;0.092;2023-08-08T06:45:16;20.19;46.79
76785;SHT30;66893;44.316;0.092;2023-08-08T06:47:41;20.04;46.96
76785;SHT30;66893;44.316;0.092;2023-08-08T06:50:07;19.89;47.51
76785;SHT30;66893;44.316;0.092;2023-08-08T06:52:33;19.78;47.85
76785;SHT30;66893;44.316;0.092;2023-08-08T06:54:59;19.67;47.83
76785;SHT30;66893;44.316;0.092;2023-08-08T06:57:24;19.61;47.94
76785;SHT30;66893;44.316;0.092;2023-08-08T06:59:49;19.57;48.13
76785;SHT30;66893;44.316;0.092;2023-08-08T07:02:16;19.53;48.48
76785;SHT30;66893;44.316;0.092;2023-08-08T07:04:42;19.50;48.96
76785;SHT30;66893;44.316;0.092;2023-08-08T07:07:07;19.50;49.05
76785;SHT30;66893;44.316;0.092;2023-08-08T07:09:32;19.47;49.02
76785;SHT30;66893;44.316;0.092;2023-08-08T07:11:58;19.49;49.27
76785;SHT30;66893;44.316;0.092;2023-08-08T07:14:24;19.51;50.07
76785;SHT30;66893;44.316;0.092;2023-08-08T07:16:49;19.51;50.06
76785;SHT30;66893;44.316;0.092;2023-08-08T07:19:15;19.53;50.06
76785;SHT30;66893;44.316;0.092;2023-08-08T07:21:41;19.55;50.10
76785;SHT30;66893;44.316;0.092;2023-08-08T07:24:06;19.61;50.08
76785;SHT30;66893;44.316;0.092;2023-08-08T07:26:32;19.64;50.53
76785;SHT30;66893;44.316;0.092;2023-08-08T07:28:57;19.69;50.38
76785;SHT30;66893;44.316;0.092;2023-08-08T07:31:23;19.74;50.71
76785;SHT30;66893;44.316;0.092;2023-08-08T07:33:48;19.81;50.72
76785;SHT30;66893;44.316;0.092;2023-08-08T07:36:14;19.83;51.05
76785;SHT30;66893;44.316;0.092;2023-08-08T07:38:39;19.90;51.03
76785;SHT30;66893;44.316;0.092;2023-08-08T07:41:05;19.96;51.11
76785;SHT30;66893;44.316;0.092;2023-08-08T07:43:31;20.06;51.16
76785;SHT30;66893;44.316;0.092;2023-08-08T07:45:56;20.13;51.22
76785;SHT30;66893;44.316;0.092;2023-08-08T07:48:21;20.23;51.15
76785;SHT30;66893;44.316;0.092;2023-08-08T07:50:47;20.29;51.40
76785;SHT30;66893;44.316;0.092;2023-08-08T07:53:12;20.37;51.30
76785;SHT30;66893;44.316;0.092;2023-08-08T07:55:38;20.48;51.34
76785;SHT30;66893;44.316;0.092;2023-08-08T07:58:03;20.55;51.18
76785;SHT30;66893;44.316;0.092;2023-08-08T08:00:29;20.63;51.14
76785;SHT30;66893;44.316;0.092;2023-08-08T08:02:54;20.70;51.18
76785;SHT30;66893;44.316;0.092;2023-08-08T08:05:20;20.81;51.09
76785;SHT30;66893;44.316;0.092;2023-08-08T08:07:45;20.89;50.94
76785;SHT30;66893;44.316;0.092;2023-08-08T08:10:12;21.00;50.97
76785;SHT30;66893;44.316;0.092;2023-08-08T08:12:41;21.08;50.91
76785;SHT30;66893;44.316;0.092;2023-08-08T08:15:07;21.16;50.89
76785;SHT30;66893;44.316;0.092;2023-08-08T08:17:33;21.23;51.07
76785;SHT30;66893;44.316;0.092;2023-08-08T08:19:59;21.33;50.97
76785;SHT30;66893;44.316;0.092;2023-08-08T08:22:24;21.40;50.84
76785;SHT30;66893;44.316;0.092;2023-08-08T08:24:50;21.51;50.67
76785;SHT30;66893;44.316;0.092;2023-08-08T08:27:15;21.55;50.60
76785;SHT30;66893;44.316;0.092;2023-08-08T08:29:41;21.65;50.58
76785;SHT30;66893;44.316;0.092;2023-08-08T08:32:06;21.73;50.55
76785;SHT30;66893;44.316;0.092;2023-08-08T08:34:32;21.82;50.64
76785;SHT30;66893;44.316;0.092;2023-08-08T08:36:57;21.89;50.64
76785;SHT30;66893;44.316;0.092;2023-08-08T08:39:23;21.98;50.44
76785;SHT30;66893;44.316;0.092;2023-08-08T08:41:49;22.05;50.47
76785;SHT30;66893;44.316;0.092;2023-08-08T08:44:21;22.12;50.41
76785;SHT30;66893;44.316;0.092;2023-08-08T08:46:47;22.20;50.37
76785;SHT30;66893;44.316;0.092;2023-08-08T08:49:14;22.30;50.22
76785;SHT30;66893;44.316;0.092;2023-08-08T08:51:41;22.35;50.08
76785;SHT30;66893;44.316;0.092;2023-08-08T08:54:08;22.43;50.00
76785;SHT30;66893;44.316;0.092;2023-08-08T08:56:34;22.50;49.89
76785;SHT30;66893;44.316;0.092;2023-08-08T08:59:00;22.61;49.81
76785;SHT30;66893;44.316;0.092;2023-08-08T09:01:25;22.67;49.77
76785;SHT30;66893;44.316;0.092;2023-08-08T09:03:52;22.75;49.72
76785;SHT30;66893;44.316;0.092;2023-08-08T09:06:18;22.80;49.49
76785;SHT30;66893;44.316;0.092;2023-08-08T09:08:46;22.91;49.25
76785;SHT30;66893;44.316;0.092;2023-08-08T09:11:12;22.97;49.08
76785;SHT30;66893;44.316;0.092;2023-08-08T09:13:39;23.07;49.00
76785;SHT30;66893;44.316;0.092;2023-08-08T09:16:08;23.12;48.55
76785;SHT30;66893;44.316;0.092;2023-08-08T09:18:35;23.22;48.27
76785;SHT30;66893;44.316;0.092;2023-08-08T09:21:06;23.27;47.94
76785;SHT30;66893;44.316;0.092;2023-08-08T09:23:31;23.36;47.77
76785;SHT30;66893;44.316;0.092;2023-08-08T09:25:57;23.45;47.82
76785;SHT30;66893;44.316;0.092;2023-08-08T09:28:22;23.52;47.65
76785;SHT30;66893;44.316;0.092;2023-08-08T09:30:48;23.59;47.61
76785;SHT30;66893;44.316;0.092;2023-08-08T09:33:14;23.66;47.68
76785;SHT30;66893;44.316;0.092;2023-08-08T09:35:40;23.73;47.54
76785;SHT30;66893;44.316;0.092;2023-08-08T09:38:06;23.81;47.38
76785;SHT30;66893;44.316;0.092;2023-08-08T09:40:32;23.87;47.22
76785;SHT30;66893;44.316;0.092;2023-08-08T09:42:58;23.93;47.15
76785;SHT30;66893;44.316;0.092;2023-08-08T09:45:23;23.97;47.12
76785;SHT30;66893;44.316;0.092;2023-08-08T09:47:50;24.08;46.80
76785;SHT30;66893;44.316;0.092;2023-08-08T09:50:18;24.12;46.56
76785;SHT30;66893;44.316;0.092;2023-08-08T09:52:44;24.19;46.42
76785;SHT30;66893;44.316;0.092;2023-08-08T09:55:11;24.21;46.47
76785;SHT30;66893;44.316;0.092;2023-08-08T09:57:38;24.26;46.53
76785;SHT30;66893;44.316;0.092;2023-08-08T10:00:04;24.30;46.26
76785;SHT30;66893;44.316;0.092;2023-08-08T10:02:31;24.35;46.38
76785;SHT30;66893;44.316;0.092;2023-08-08T10:04:57;24.37;46.43
76785;SHT30;66893;44.316;0.092;2023-08-08T10:07:23;24.40;46.44
76785;SHT30;66893;44.316;0.092;2023-08-08T10:09:49;24.40;46.39
76785;SHT30;66893;44.316;0.092;2023-08-08T10:12:15;24.42;46.42
76785;SHT30;66893;44.316;0.092;2023-08-08T10:14:42;24.42;46.44
76785;SHT30;66893;44.316;0.092;2023-08-08T10:17:08;24.46;46.41
76785;SHT30;66893;44.316;0.092;2023-08-08T10:19:33;24.48;46.37
76785;SHT30;66893;44.316;0.092;2023-08-08T10:22:04;24.48;46.39
76785;SHT30;66893;44.316;0.092;2023-08-08T10:24:34;24.51;46.34
76785;SHT30;66893;44.316;0.092;2023-08-08T10:27:04;24.55;46.35
76785;SHT30;66893;44.316;0.092;2023-08-08T10:29:32;24.55;46.32
76785;SHT30;66893;44.316;0.092;2023-08-08T10:32:06;24.56;46.32
76785;SHT30;66893;44.316;0.092;2023-08-08T10:34:42;24.59;46.26
76785;SHT30;66893;44.316;0.092;2023-08-08T10:37:12;24.62;46.28
76785;SHT30;66893;44.316;0.092;2023-08-08T10:39:51;24.63;46.20
76785;SHT30;66893;44.316;0.092;2023-08-08T10:42:18;24.66;46.23
76785;SHT30;66893;44.316;0.092;2023-08-08T10:44:54;24.69;46.18
76785;SHT30;66893;44.316;0.092;2023-08-08T10:47:36;24.72;46.16
76785;SHT30;66893;44.316;0.092;2023-08-08T10:55:45;24.86;46.06
76785;SHT30;66893;44.316;0.092;2023-08-08T10:58:13;24.86;45.94
76785;SHT30;66893;44.316;0.092;2023-08-08T11:00:44;24.94;45.99
76785;SHT30;66893;44.316;0.092;2023-08-08T11:03:10;24.95;45.93
76785;SHT30;66893;44.316;0.092;2023-08-08T11:05:37;25.01;45.92
76785;SHT30;66893;44.316;0.092;2023-08-08T11:08:04;25.04;45.86
76785;SHT30;66893;44.316;0.092;2023-08-08T11:10:35;25.07;45.81
76785;SHT30;66893;44.316;0.092;2023-08-08T11:13:03;25.10;45.77
76785;SHT30;66893;44.316;0.092;2023-08-08T11:15:29;25.15;45.75
76785;SHT30;66893;44.316;0.092;2023-08-08T11:17:57;25.21;45.71
76785;SHT30;66893;44.316;0.092;2023-08-08T11:20:23;25.29;45.61
76785;SHT30;66893;44.316;0.092;2023-08-08T11:22:53;25.31;45.61
76785;SHT30;66893;44.316;0.092;2023-08-08T11:25:20;25.35;45.58
76785;SHT30;66893;44.316;0.092;2023-08-08T11:27:53;25.41;45.60
76785;SHT30;66893;44.316;0.092;2023-08-08T11:30:20;25.47;45.64
76785;SHT30;66893;44.316;0.092;2023-08-08T11:32:46;25.55;45.63
76785;SHT30;66893;44.316;0.092;2023-08-08T11:35:15;25.61;45.75
76785;SHT30;66893;44.316;0.092;2023-08-08T11:37:41;25.69;45.73
76785;SHT30;66893;44.316;0.092;2023-08-08T11:40:08;25.76;45.78
76785;SHT30;66893;44.316;0.092;2023-08-08T11:42:34;25.83;45.78
76785;SHT30;66893;44.316;0.092;2023-08-08T11:45:00;25.91;45.59
76785;SHT30;66893;44.316;0.092;2023-08-08T11:47:26;25.98;45.33
76785;SHT30;66893;44.316;0.092;2023-08-08T11:49:51;26.07;45.25
76785;SHT30;66893;44.316;0.092;2023-08-08T11:52:19;26.18;45.11
76785;SHT30;66893;44.316;0.092;2023-08-08T11:54:51;26.21;45.08
76785;SHT30;66893;44.316;0.092;2023-08-08T11:57:16;26.27;45.01
76785;SHT30;66893;44.316;0.092;2023-08-08T11:59:42;26.34;44.92
76785;SHT30;66893;44.316;0.092;2023-08-08T12:02:09;26.41;44.96
76785;SHT30;66893;44.316;0.092;2023-08-08T12:04:34;26.45;44.86
76785;SHT30;66893;44.316;0.092;2023-08-08T12:07:01;26.51;44.81
76785;SHT30;66893;44.316;0.092;2023-08-08T12:09:33;26.57;44.77
76785;SHT30;66893;44.316;0.092;2023-08-08T12:12:01;26.63;44.72
76785;SHT30;66893;44.316;0.092;2023-08-08T12:14:27;26.71;44.73
76785;SHT30;66893;44.316;0.092;2023-08-08T12:16:53;26.76;44.61
76785;SHT30;66893;44.316;0.092;2023-08-08T12:19:23;26.79;44.62
76785;SHT30;66893;44.316;0.092;2023-08-08T12:21:49;26.87;44.41
76785;SHT30;66893;44.316;0.092;2023-08-08T12:24:15;26.91;44.52
76785;SHT30;66893;44.316;0.092;2023-08-08T12:26:40;26.99;44.48
76785;SHT30;66893;44.316;0.092;2023-08-08T12:29:06;27.04;44.43
76785;SHT30;66893;44.316;0.092;2023-08-08T12:31:32;27.10;44.29
76785;SHT30;66893;44.316;0.092;2023-08-08T12:33:57;27.14;44.20
76785;SHT30;66893;44.316;0.092;2023-08-08T12:36:22;27.20;44.17
76785;SHT30;66893;44.316;0.092;2023-08-08T12:38:48;27.24;44.21
76785;SHT30;66893;44.316;0.092;2023-08-08T12:41:14;27.33;44.20
76785;SHT30;66893;44.316;0.092;2023-08-08T12:43:39;27.35;44.25
76785;SHT30;66893;44.316;0.092;2023-08-08T12:46:05;27.42;44.02
76785;SHT30;66893;44.316;0.092;2023-08-08T12:48:30;27.48;44.05
76785;SHT30;66893;44.316;0.092;2023-08-08T12:50:56;27.54;43.75
76785;SHT30;66893;44.316;0.092;2023-08-08T12:53:22;27.56;43.82
76785;SHT30;66893;44.316;0.092;2023-08-08T12:55:47;27.62;43.78
76785;SHT30;66893;44.316;0.092;2023-08-08T12:58:13;27.69;43.81
76785;SHT30;66893;44.316;0.092;2023-08-08T13:00:38;27.73;43.83
76785;SHT30;66893;44.316;0.092;2023-08-08T13:03:04;27.81;43.66
76785;SHT30;66893;44.316;0.092;2023-08-08T13:05:29;27.86;43.52
76785;SHT30;66893;44.316;0.092;2023-08-08T13:07:55;27.93;43.47
76785;SHT30;66893;44.316;0.092;2023-08-08T13:10:20;27.97;43.48
76785;SHT30;66893;44.316;0.092;2023-08-08T13:12:47;28.03;43.37
76785;SHT30;66893;44.316;0.092;2023-08-08T13:15:13;28.09;43.35
76785;SHT30;66893;44.316;0.092;2023-08-08T13:17:39;28.11;43.24
76785;SHT30;66893;44.316;0.092;2023-08-08T13:20:04;28.20;43.13
76785;SHT30;66893;44.316;0.092;2023-08-08T13:22:30;28.24;43.10
76785;SHT30;66893;44.316;0.092;2023-08-08T13:24:55;28.34;43.00
76785;SHT30;66893;44.316;0.092;2023-08-08T13:27:21;28.37;42.97
76785;SHT30;66893;44.316;0.092;2023-08-08T13:29:46;28.43;42.85
76785;SHT30;66893;44.316;0.092;2023-08-08T13:32:12;28.47;42.74
76785;SHT30;66893;44.316;0.092;2023-08-08T13:34:38;28.54;42.85
76785;SHT30;66893;44.316;0.092;2023-08-08T13:37:03;28.56;42.73
76785;SHT30;66893;44.316;0.092;2023-08-08T13:39:30;28.62;42.62
76785;SHT30;66893;44.316;0.092;2023-08-08T13:41:55;28.66;42.52
76785;SHT30;66893;44.316;0.092;2023-08-08T13:44:20;28.72;42.46
76785;SHT30;66893;44.316;0.092;2023-08-08T13:46:46;28.78;42.41
76785;SHT30;66893;44.316;0.092;2023-08-08T13:49:11;28.83;42.34
76785;SHT30;66893;44.316;0.092;2023-08-08T13:51:37;28.84;42.34
76785;SHT30;66893;44.316;0.092;2023-08-08T13:54:02;28.92;42.19
76785;SHT30;66893;44.316;0.092;2023-08-08T13:56:28;28.96;42.22
76785;SHT30;66893;44.316;0.092;2023-08-08T13:58:53;29.03;42.14
76785;SHT30;66893;44.316;0.092;2023-08-08T14:01:19;29.10;42.02
76785;SHT30;66893;44.316;0.092;2023-08-08T14:03:44;29.13;41.89
76785;SHT30;66893;44.316;0.092;2023-08-08T14:06:10;29.16;41.76
76785;SHT30;66893;44.316;0.092;2023-08-08T14:08:35;29.21;41.80
76785;SHT30;66893;44.316;0.092;2023-08-08T14:11:01;29.27;41.67
76785;SHT30;66893;44.316;0.092;2023-08-08T14:13:26;29.30;41.74
76785;SHT30;66893;44.316;0.092;2023-08-08T14:15:51;29.34;41.60
76785;SHT30;66893;44.316;0.092;2023-08-08T14:18:18;29.39;41.59
76785;SHT30;66893;44.316;0.092;2023-08-08T14:20:43;29.45;41.59
76785;SHT30;66893;44.316;0.092;2023-08-08T14:23:09;29.47;41.57
76785;SHT30;66893;44.316;0.092;2023-08-08T14:25:34;29.53;41.41
76785;SHT30;66893;44.316;0.092;2023-08-08T14:28:00;29.58;41.35
76785;SHT30;66893;44.316;0.092;2023-08-08T14:30:27;29.62;41.18
76785;SHT30;66893;44.316;0.092;2023-08-08T14:32:53;29.64;41.15
76785;SHT30;66893;44.316;0.092;2023-08-08T14:35:19;29.69;41.19
76785;SHT30;66893;44.316;0.092;2023-08-08T14:37:45;29.75;41.05
76785;SHT30;66893;44.316;0.092;2023-08-08T14:40:10;29.78;41.04
76785;SHT30;66893;44.316;0.092;2023-08-08T14:42:36;29.83;41.00
76785;SHT30;66893;44.316;0.092;2023-08-08T14:45:02;29.86;41.00
76785;SHT30;66893;44.316;0.092;2023-08-08T14:47:27;29.92;40.96
76785;SHT30;66893;44.316;0.092;2023-08-08T14:49:53;29.93;40.90
76785;SHT30;66893;44.316;0.092;2023-08-08T14:52:18;29.96;40.91
76785;SHT30;66893;44.316;0.092;2023-08-08T14:54:44;30.02;40.82
76785;SHT30;66893;44.316;0.092;2023-08-08T14:57:09;30.05;40.82
76785;SHT30;66893;44.316;0.092;2023-08-08T14:59:35;30.09;40.81
76785;SHT30;66893;44.316;0.092;2023-08-08T15:02:01;30.12;40.84
76785;SHT30;66893;44.316;0.092;2023-08-08T15:04:26;30.16;40.76
76785;SHT30;66893;44.316;0.092;2023-08-08T15:06:52;30.19;40.56
76785;SHT30;66893;44.316;0.092;2023-08-08T15:09:18;30.20;40.68
76785;SHT30;66893;44.316;0.092;2023-08-08T15:11:43;30.26;40.83
76785;SHT30;66893;44.316;0.092;2023-08-08T15:14:09;30.33;40.84
76785;SHT30;66893;44.316;0.092;2023-08-08T15:16:34;30.36;40.83
76785;SHT30;66893;44.316;0.092;2023-08-08T15:19:01;30.43;40.84
76785;SHT30;66893;44.316;0.092;2023-08-08T15:21:27;30.49;40.84
76785;SHT30;66893;44.316;0.092;2023-08-08T15:23:52;30.57;40.83
76785;SHT30;66893;44.316;0.092;2023-08-08T15:26:19;30.61;40.79
76785;SHT30;66893;44.316;0.092;2023-08-08T15:28:47;30.64;40.71